createdAt,value
2023-02-03T00:00:53.519Z,7.50
2023-02-03T00:03:20.259Z,7.60
2023-02-03T00:05:47.638Z,7.60
2023-02-03T00:08:15.041Z,7.60
2023-02-03T00:10:42.277Z,7.60
2023-02-03T00:13:09.243Z,7.60
2023-02-03T00:15:35.993Z,7.60
2023-02-03T00:18:02.908Z,7.60
2023-02-03T00:20:29.772Z,7.60
2023-02-03T00:23:07.275Z,7.60
2023-02-03T00:25:34.231Z,7.60
2023-02-03T00:28:01.528Z,7.60
2023-02-03T00:30:28.795Z,7.60
2023-02-03T00:32:55.675Z,7.60
2023-02-03T00:35:23.141Z,7.60
2023-02-03T00:37:54.460Z,7.60
2023-02-03T00:40:22.416Z,7.60
2023-02-03T00:42:49.225Z,7.60
2023-02-03T00:45:16.130Z,7.60
2023-02-03T00:47:42.992Z,7.60
2023-02-03T00:50:10.774Z,7.60
2023-02-03T00:55:05.922Z,7.60
2023-02-03T00:57:32.888Z,7.60
2023-02-03T00:59:59.576Z,7.60
2023-02-03T01:02:26.404Z,7.60
2023-02-03T01:04:53.188Z,7.60
2023-02-03T01:07:19.927Z,7.70
2023-02-03T01:09:46.657Z,7.70
2023-02-03T01:12:13.336Z,7.70
2023-02-03T01:14:40.085Z,7.60
2023-02-03T01:17:06.816Z,7.60
2023-02-03T01:19:33.582Z,7.70
2023-02-03T01:22:00.410Z,7.70
2023-02-03T01:24:29.059Z,7.70
2023-02-03T01:26:55.725Z,7.70
2023-02-03T01:29:22.519Z,7.70
2023-02-03T01:31:49.353Z,7.70
2023-02-03T01:34:18.884Z,7.70
2023-02-03T01:36:46.821Z,7.70
2023-02-03T01:39:14.566Z,7.70
2023-02-03T01:41:41.550Z,7.70
2023-02-03T01:44:36.290Z,7.70
2023-02-03T01:47:06.120Z,7.70
2023-02-03T01:49:37.069Z,7.70
2023-02-03T01:52:04.936Z,7.70
2023-02-03T01:54:37.762Z,7.70
2023-02-03T01:57:12.024Z,7.70
2023-02-03T01:59:39.096Z,7.70
2023-02-03T02:04:50.896Z,7.70
2023-02-03T02:07:17.794Z,7.70
2023-02-03T02:09:46.158Z,7.70
2023-02-03T02:12:13.166Z,7.70
2023-02-03T02:14:40.933Z,7.70
2023-02-03T02:17:39.597Z,7.70
2023-02-03T02:20:12.088Z,7.70
2023-02-03T02:22:41.813Z,7.70
2023-02-03T02:25:56.595Z,7.70
2023-02-03T02:28:57.713Z,7.70
2023-02-03T02:32:02.269Z,7.70
2023-02-03T02:34:50.557Z,7.70
2023-02-03T02:37:50.009Z,7.70
2023-02-03T02:40:25.540Z,7.70
2023-02-03T02:43:09.389Z,7.70
2023-02-03T02:45:52.535Z,7.70
2023-02-03T02:48:54.095Z,7.70
2023-02-03T02:51:23.262Z,7.80
2023-02-03T02:53:55.855Z,7.80
2023-02-03T02:56:25.602Z,7.70
2023-02-03T02:58:54.305Z,7.70
2023-02-03T03:01:21.118Z,7.80
2023-02-03T03:03:47.931Z,7.80
2023-02-03T03:06:17.545Z,7.80
2023-02-03T03:08:53.639Z,7.80
2023-02-03T03:11:20.613Z,7.80
2023-02-03T03:13:53.494Z,7.80
2023-02-03T03:16:24.609Z,7.90
2023-02-03T03:19:07.000Z,7.80
2023-02-03T03:21:47.652Z,7.80
2023-02-03T03:24:19.956Z,7.80
2023-02-03T03:27:00.437Z,7.80
2023-02-03T03:29:57.877Z,7.80
2023-02-03T03:32:25.522Z,7.80
2023-02-03T03:34:52.824Z,7.80
2023-02-03T03:38:05.683Z,7.80
2023-02-03T03:40:38.632Z,7.80
2023-02-03T03:43:17.615Z,7.80
2023-02-03T03:45:52.224Z,7.80
2023-02-03T03:48:58.678Z,7.80
2023-02-03T03:51:37.243Z,7.80
2023-02-03T03:54:09.644Z,7.80
2023-02-03T03:56:58.800Z,7.80
2023-02-03T03:59:29.047Z,7.80
2023-02-03T04:01:57.199Z,7.80
2023-02-03T04:04:25.921Z,7.80
2023-02-03T04:06:56.133Z,7.90
2023-02-03T04:09:23.179Z,7.80
2023-02-03T04:12:01.793Z,7.90
2023-02-03T04:14:34.703Z,7.90
2023-02-03T04:17:01.848Z,7.90
2023-02-03T04:19:28.691Z,7.90
2023-02-03T04:21:55.644Z,7.90
2023-02-03T04:24:22.399Z,7.90
2023-02-03T04:26:49.121Z,7.90
2023-02-03T04:29:15.886Z,8.00
2023-02-03T04:31:42.615Z,7.90
2023-02-03T04:36:36.500Z,7.90
2023-02-03T04:39:03.678Z,8.00
2023-02-03T04:41:30.434Z,8.00
2023-02-03T04:43:57.167Z,8.00
2023-02-03T04:46:23.856Z,8.00
2023-02-03T04:48:50.534Z,8.00
2023-02-03T04:51:17.252Z,8.00
2023-02-03T04:53:44.025Z,8.00
2023-02-03T04:56:10.788Z,8.00
2023-02-03T04:58:37.687Z,8.00
2023-02-03T05:01:09.230Z,8.00
2023-02-03T05:03:36.423Z,7.90
2023-02-03T05:06:03.576Z,8.00
2023-02-03T05:08:31.262Z,8.00
2023-02-03T05:10:58.774Z,8.00
2023-02-03T05:13:26.303Z,8.00
2023-02-03T05:15:53.050Z,8.00
2023-02-03T05:18:19.834Z,7.90
2023-02-03T05:20:46.579Z,8.00
2023-02-03T05:23:13.310Z,8.00
2023-02-03T05:25:40.029Z,8.00
2023-02-03T05:28:06.832Z,8.00
2023-02-03T05:30:33.654Z,8.00
2023-02-03T05:33:00.368Z,8.00
2023-02-03T05:35:27.367Z,8.00
2023-02-03T05:37:54.081Z,8.00
2023-02-03T05:40:39.548Z,8.00
2023-02-03T05:43:06.311Z,8.00
2023-02-03T05:45:33.168Z,8.00
2023-02-03T05:47:59.934Z,8.00
2023-02-03T05:50:27.924Z,8.00
2023-02-03T05:52:54.758Z,8.00
2023-02-03T05:57:48.535Z,8.00
2023-02-03T06:00:15.607Z,8.00
2023-02-03T06:02:42.310Z,8.00
2023-02-03T06:05:09.347Z,8.00
2023-02-03T06:07:36.131Z,8.00
2023-02-03T06:10:03.140Z,7.90
2023-02-03T06:12:29.892Z,7.80
2023-02-03T06:14:56.631Z,7.80
2023-02-03T06:17:23.297Z,7.80
2023-02-03T06:19:50.027Z,7.70
2023-02-03T06:22:16.765Z,7.70
2023-02-03T06:24:44.822Z,7.70
2023-02-03T06:27:12.091Z,7.60
2023-02-03T06:29:38.888Z,7.60
2023-02-03T06:32:05.961Z,7.60
2023-02-03T06:34:33.375Z,7.60
2023-02-03T06:37:00.301Z,7.60
2023-02-03T06:39:27.308Z,7.60
2023-02-03T06:41:55.757Z,7.60
2023-02-03T06:44:22.971Z,7.50
2023-02-03T06:46:50.792Z,7.50
2023-02-03T06:49:18.032Z,7.50
2023-02-03T06:51:45.480Z,7.60
2023-02-03T06:54:13.778Z,7.60
2023-02-03T06:56:40.718Z,7.60
2023-02-03T06:59:08.823Z,7.60
2023-02-03T07:01:36.212Z,7.50
2023-02-03T07:04:03.768Z,7.50
2023-02-03T07:06:33.848Z,7.60
2023-02-03T07:09:02.664Z,7.60
2023-02-03T07:11:29.663Z,7.60
2023-02-03T07:13:56.560Z,7.60
2023-02-03T07:16:23.776Z,7.60
2023-02-03T07:18:50.528Z,7.60
2023-02-03T07:21:17.753Z,7.60
2023-02-03T07:23:47.543Z,7.60
2023-02-03T07:26:14.421Z,7.60
2023-02-03T07:28:41.153Z,7.60
2023-02-03T07:31:10.982Z,7.50
2023-02-03T07:33:39.054Z,7.50
2023-02-03T07:36:07.022Z,7.50
2023-02-03T07:38:33.918Z,7.60
2023-02-03T07:41:00.703Z,7.50
2023-02-03T07:43:27.396Z,7.50
2023-02-03T07:45:54.096Z,7.50
2023-02-03T07:48:20.974Z,7.60
2023-02-03T07:50:50.848Z,7.50
2023-02-03T07:53:17.854Z,7.50
2023-02-03T07:55:44.621Z,7.50
2023-02-03T07:58:11.640Z,7.60
2023-02-03T08:00:38.428Z,7.60
2023-02-03T08:03:05.191Z,7.60
2023-02-03T08:05:31.915Z,7.60
2023-02-03T08:07:59.482Z,7.60
2023-02-03T08:10:26.705Z,7.60
2023-02-03T08:12:55.241Z,7.60
2023-02-03T08:15:21.999Z,7.60
2023-02-03T08:17:51.961Z,7.60
2023-02-03T08:20:19.044Z,7.60
2023-02-03T08:22:46.064Z,7.60
2023-02-03T08:25:13.433Z,7.60
2023-02-03T08:27:40.934Z,7.70
2023-02-03T08:30:11.751Z,7.70
2023-02-03T08:32:38.425Z,7.70
2023-02-03T08:35:05.761Z,7.70
2023-02-03T08:37:32.687Z,7.70
2023-02-03T08:40:00.009Z,7.80
2023-02-03T08:42:26.870Z,7.80
2023-02-03T08:44:53.556Z,7.80
2023-02-03T08:47:20.300Z,7.90
2023-02-03T08:49:47.446Z,7.90
2023-02-03T08:52:14.953Z,8.00
2023-02-03T08:54:43.151Z,8.00
2023-02-03T08:57:10.060Z,8.00
2023-02-03T08:59:40.258Z,8.00
2023-02-03T09:02:11.450Z,8.00
2023-02-03T09:07:05.420Z,8.10
2023-02-03T09:09:32.357Z,8.10
2023-02-03T09:12:02.466Z,8.10
2023-02-03T09:14:30.010Z,8.10
2023-02-03T09:19:24.146Z,8.00
2023-02-03T09:21:51.403Z,8.00
2023-02-03T09:24:18.851Z,7.90
2023-02-03T09:26:45.862Z,7.90
2023-02-03T09:29:13.053Z,7.90
2023-02-03T09:31:39.951Z,7.90
2023-02-03T09:34:06.897Z,7.90
2023-02-03T09:36:34.199Z,7.90
2023-02-03T09:39:00.989Z,7.90
2023-02-03T09:41:36.797Z,7.90
2023-02-03T09:44:31.186Z,7.90
2023-02-03T09:47:02.680Z,7.90
2023-02-03T09:49:41.530Z,7.90
2023-02-03T09:52:17.540Z,7.90
2023-02-03T09:55:05.342Z,7.90
2023-02-03T09:57:40.683Z,7.90
2023-02-03T10:00:21.964Z,7.90
2023-02-03T10:03:22.490Z,7.90
2023-02-03T10:06:08.101Z,7.90
2023-02-03T10:09:08.104Z,7.90
2023-02-03T10:11:40.723Z,7.90
2023-02-03T10:14:10.236Z,7.90
2023-02-03T10:17:12.152Z,7.90
2023-02-03T10:19:52.680Z,7.90
2023-02-03T10:22:25.911Z,7.90
2023-02-03T10:24:55.738Z,7.90
2023-02-03T10:27:24.534Z,8.00
2023-02-03T10:30:04.277Z,8.00
2023-02-03T10:32:31.440Z,8.00
2023-02-03T10:34:58.141Z,8.00
2023-02-03T10:37:32.079Z,8.00
2023-02-03T10:40:00.749Z,8.00
2023-02-03T10:42:50.104Z,8.00
2023-02-03T10:45:17.247Z,8.10
2023-02-03T10:47:55.006Z,8.10
2023-02-03T10:50:31.895Z,8.10
2023-02-03T10:53:20.486Z,8.10
2023-02-03T10:55:50.327Z,8.10
2023-02-03T10:58:25.705Z,8.10
2023-02-03T11:01:05.276Z,8.10
2023-02-03T11:03:32.165Z,8.10
2023-02-03T11:06:13.386Z,8.10
2023-02-03T11:08:43.313Z,8.10
2023-02-03T11:11:24.969Z,8.10
2023-02-03T11:14:01.561Z,8.00
2023-02-03T11:16:29.770Z,8.00
2023-02-03T11:18:58.473Z,8.00
2023-02-03T11:21:44.101Z,8.00
2023-02-03T11:24:14.216Z,8.00
2023-02-03T11:26:45.651Z,8.00
2023-02-03T11:29:18.361Z,8.00
2023-02-03T11:31:49.881Z,8.00
2023-02-03T11:34:24.121Z,8.10
2023-02-03T11:36:51.103Z,8.10
2023-02-03T11:39:26.434Z,8.20
2023-02-03T11:41:54.091Z,8.20
2023-02-03T11:44:24.258Z,8.30
2023-02-03T11:46:55.745Z,8.30
2023-02-03T11:50:10.909Z,8.40
2023-02-03T11:52:49.583Z,8.50
2023-02-03T11:55:34.832Z,8.60
2023-02-03T11:58:07.212Z,8.70
2023-02-03T12:00:49.947Z,8.80
2023-02-03T12:03:40.265Z,8.80
2023-02-03T12:06:56.266Z,8.90
2023-02-03T12:09:57.618Z,9.00
2023-02-03T12:12:27.570Z,9.30
2023-02-03T12:15:13.044Z,9.30
2023-02-03T12:18:10.568Z,9.30
2023-02-03T12:21:08.104Z,9.20
2023-02-03T12:23:52.712Z,9.10
2023-02-03T12:26:26.395Z,9.00
2023-02-03T12:29:07.605Z,9.00
2023-02-03T12:31:44.403Z,9.00
2023-02-03T12:34:27.809Z,9.00
2023-02-03T12:37:10.363Z,8.90
2023-02-03T12:39:46.404Z,9.00
2023-02-03T12:42:24.648Z,9.00
2023-02-03T12:44:58.114Z,9.00
2023-02-03T12:47:44.057Z,9.10
2023-02-03T12:50:10.881Z,9.10
2023-02-03T12:53:05.987Z,9.20
2023-02-03T12:55:38.959Z,9.30
2023-02-03T12:58:11.714Z,9.30
2023-02-03T13:00:50.223Z,9.20
2023-02-03T13:03:48.980Z,9.20
2023-02-03T13:06:32.251Z,9.20
2023-02-03T13:09:33.084Z,9.10
2023-02-03T13:12:24.840Z,9.10
2023-02-03T13:14:59.019Z,9.20
2023-02-03T13:17:41.164Z,9.00
2023-02-03T13:20:20.575Z,9.00
2023-02-03T13:22:47.353Z,8.90
2023-02-03T13:25:24.660Z,8.90
2023-02-03T13:28:03.509Z,8.80
2023-02-03T13:30:58.039Z,8.80
2023-02-03T13:34:03.126Z,8.80
2023-02-03T13:37:10.435Z,8.80
2023-02-03T13:39:39.952Z,8.80
2023-02-03T13:42:22.529Z,8.90
2023-02-03T13:44:53.865Z,8.90
2023-02-03T13:47:27.789Z,8.90
2023-02-03T13:50:07.137Z,8.90
2023-02-03T13:52:38.577Z,8.90
2023-02-03T13:55:06.165Z,8.90
2023-02-03T13:57:38.318Z,8.90
2023-02-03T14:00:27.907Z,8.90
2023-02-03T14:02:56.114Z,8.90
2023-02-03T14:05:44.557Z,9.00
2023-02-03T14:08:29.358Z,9.00
2023-02-03T14:11:33.228Z,9.00
2023-02-03T14:14:22.765Z,8.90
2023-02-03T14:16:54.654Z,8.90
2023-02-03T14:19:21.692Z,8.90
2023-02-03T14:21:54.297Z,8.90
2023-02-03T14:24:22.319Z,8.80
2023-02-03T14:26:55.122Z,8.80
2023-02-03T14:29:24.928Z,8.70
2023-02-03T14:32:12.170Z,8.70
2023-02-03T14:34:46.783Z,8.70
2023-02-03T14:37:31.465Z,8.70
2023-02-03T14:40:19.496Z,8.60
2023-02-03T14:43:16.992Z,8.60
2023-02-03T14:46:04.761Z,8.60
2023-02-03T14:48:43.803Z,8.60
2023-02-03T14:51:16.819Z,8.60
2023-02-03T14:54:03.427Z,8.60
2023-02-03T14:57:21.222Z,8.50
2023-02-03T15:00:11.786Z,8.50
2023-02-03T15:03:10.405Z,8.60
2023-02-03T15:05:50.764Z,8.60
2023-02-03T15:08:33.316Z,8.60
2023-02-03T15:11:00.898Z,8.50
2023-02-03T15:13:29.906Z,8.60
2023-02-03T15:16:12.867Z,8.50
2023-02-03T15:18:40.870Z,8.40
2023-02-03T15:21:19.328Z,8.40
2023-02-03T15:23:48.445Z,8.40
2023-02-03T15:26:17.539Z,8.30
2023-02-03T15:28:44.576Z,8.20
2023-02-03T15:31:46.041Z,8.20
2023-02-03T15:34:23.441Z,8.20
2023-02-03T15:36:54.292Z,8.20
2023-02-03T15:39:59.392Z,8.10
2023-02-03T15:43:09.442Z,8.10
2023-02-03T15:45:46.095Z,8.10
2023-02-03T15:48:29.137Z,8.00
2023-02-03T15:51:02.997Z,8.00
2023-02-03T15:53:46.702Z,8.00
2023-02-03T15:56:26.512Z,7.90
2023-02-03T15:58:53.458Z,7.90
2023-02-03T16:01:23.906Z,8.00
2023-02-03T16:03:53.308Z,7.90
2023-02-03T16:06:37.013Z,7.90
2023-02-03T16:09:06.919Z,7.80
2023-02-03T16:11:34.868Z,7.90
2023-02-03T16:14:07.555Z,7.80
2023-02-03T16:16:43.777Z,7.80
2023-02-03T16:19:20.436Z,7.80
2023-02-03T16:21:50.165Z,7.80
2023-02-03T16:24:41.022Z,7.80
2023-02-03T16:27:26.192Z,7.80
2023-02-03T16:30:41.354Z,7.80
2023-02-03T16:33:32.568Z,7.70
2023-02-03T16:36:32.103Z,7.70
2023-02-03T16:39:20.743Z,7.70
2023-02-03T16:42:06.167Z,7.60
2023-02-03T16:44:51.743Z,7.60
2023-02-03T16:47:48.910Z,7.60
2023-02-03T16:50:39.045Z,7.60
2023-02-03T16:53:19.463Z,7.60
2023-02-03T16:55:47.154Z,7.50
2023-02-03T16:58:14.129Z,7.60
2023-02-03T17:00:43.339Z,7.60
2023-02-03T17:03:12.758Z,7.50
2023-02-03T17:05:42.384Z,7.60
2023-02-03T17:10:37.481Z,7.50
2023-02-03T17:13:05.155Z,7.40
2023-02-03T17:15:32.202Z,7.40
2023-02-03T17:17:59.349Z,7.40
2023-02-03T17:20:26.542Z,7.40
2023-02-03T17:22:54.666Z,7.40
2023-02-03T17:25:21.954Z,7.30
2023-02-03T17:27:48.953Z,7.40
2023-02-03T17:30:15.934Z,7.30
2023-02-03T17:32:42.716Z,7.40
2023-02-03T17:35:09.469Z,7.40
2023-02-03T17:37:36.458Z,7.30
2023-02-03T17:54:06.210Z,7.20
2023-02-03T17:56:35.671Z,7.30
2023-02-03T17:59:04.164Z,7.30
2023-02-03T18:01:32.075Z,7.30
2023-02-03T18:04:01.519Z,7.30
2023-02-03T18:06:29.835Z,7.30
2023-02-03T18:09:01.915Z,7.30
2023-02-03T18:11:30.366Z,7.30
2023-02-03T18:16:28.971Z,7.20
2023-02-03T18:21:24.755Z,7.20
2023-02-03T18:23:51.627Z,7.20
2023-02-03T18:26:19.955Z,7.20
2023-02-03T18:28:47.192Z,7.20
2023-02-03T18:31:17.540Z,7.20
2023-02-03T18:33:46.258Z,7.30
2023-02-03T18:36:13.525Z,7.20
2023-02-03T18:38:42.404Z,7.20
2023-02-03T18:41:13.632Z,7.20
2023-02-03T18:43:40.910Z,7.20
2023-02-03T18:46:09.577Z,7.20
2023-02-03T18:48:36.739Z,7.20
2023-02-03T18:51:03.685Z,7.20
2023-02-03T18:53:31.216Z,7.20
2023-02-03T18:55:58.009Z,7.20
2023-02-03T18:58:24.690Z,7.10
2023-02-03T19:00:51.511Z,7.20
2023-02-03T19:03:21.162Z,7.10
2023-02-03T19:05:47.986Z,7.10
2023-02-03T19:08:14.686Z,7.10
2023-02-03T19:10:41.411Z,7.00
2023-02-03T19:13:08.129Z,7.00
2023-02-03T19:18:02.049Z,7.00
2023-02-03T19:20:29.027Z,6.90
2023-02-03T19:22:56.782Z,6.90
2023-02-03T19:27:50.855Z,6.90
2023-02-03T19:30:17.763Z,6.90
2023-02-03T19:32:44.573Z,6.80
2023-02-03T19:35:12.622Z,6.80
2023-02-03T19:37:39.509Z,6.70
2023-02-03T19:40:07.033Z,6.70
2023-02-03T19:42:33.735Z,6.80
2023-02-03T19:45:00.542Z,6.70
2023-02-03T19:47:27.642Z,6.70
2023-02-03T19:49:54.397Z,6.70
2023-02-03T19:52:21.140Z,6.70
2023-02-03T19:54:47.945Z,6.70
2023-02-03T19:57:14.711Z,6.60
2023-02-03T19:59:41.475Z,6.60
2023-02-03T20:02:14.216Z,6.60
2023-02-03T20:04:42.193Z,6.60
2023-02-03T20:07:08.905Z,6.60
2023-02-03T20:09:35.798Z,6.60
2023-02-03T20:12:02.535Z,6.60
2023-02-03T20:14:29.874Z,6.60
2023-02-03T20:16:56.609Z,6.60
2023-02-03T20:19:23.416Z,6.60
2023-02-03T20:21:50.298Z,6.60
2023-02-03T20:24:17.277Z,6.50
2023-02-03T20:26:44.016Z,6.50
2023-02-03T20:29:10.797Z,6.60
2023-02-03T20:31:37.539Z,6.60
2023-02-03T20:34:04.299Z,6.60
2023-02-03T20:36:31.018Z,6.60
2023-02-03T20:38:57.788Z,6.50
2023-02-03T20:41:24.753Z,6.60
2023-02-03T20:43:51.499Z,6.60
2023-02-03T20:46:19.505Z,6.60
2023-02-03T20:48:46.277Z,6.60
2023-02-03T20:51:18.683Z,6.60
2023-02-03T20:53:45.472Z,6.60
2023-02-03T20:56:14.810Z,6.60
2023-02-03T20:58:42.527Z,6.60
2023-02-03T21:01:27.848Z,6.70
2023-02-03T21:04:13.053Z,6.70
2023-02-03T21:06:39.896Z,6.70
2023-02-03T21:09:15.926Z,6.60
2023-02-03T21:11:43.465Z,6.70
2023-02-03T21:14:39.180Z,6.70
2023-02-03T21:17:15.757Z,6.60
2023-02-03T21:19:42.621Z,6.70
2023-02-03T21:22:18.070Z,6.60
2023-02-03T21:24:52.284Z,6.60
2023-02-03T21:27:28.714Z,6.60
2023-02-03T21:29:57.579Z,6.60
2023-02-03T21:32:26.565Z,6.60
2023-02-03T21:34:53.305Z,6.70
2023-02-03T21:37:23.068Z,6.70
2023-02-03T21:39:50.492Z,6.70
2023-02-03T21:42:43.557Z,6.70
2023-02-03T21:45:22.452Z,6.70
2023-02-03T21:47:51.064Z,6.70
2023-02-03T21:50:31.682Z,6.70
2023-02-03T21:53:07.879Z,6.70
2023-02-03T21:55:35.816Z,6.70
2023-02-03T21:58:23.495Z,6.70
2023-02-03T22:00:55.687Z,6.60
2023-02-03T22:05:49.909Z,6.70
2023-02-03T22:08:23.941Z,6.70
2023-02-03T22:10:50.861Z,6.70
2023-02-03T22:13:17.761Z,6.70
2023-02-03T22:15:46.289Z,6.60
2023-02-03T22:18:12.989Z,6.60
2023-02-03T22:20:39.704Z,6.70
2023-02-03T22:23:06.468Z,6.70
2023-02-03T22:25:33.267Z,6.60
2023-02-03T22:28:00.046Z,6.60
2023-02-03T22:30:26.973Z,6.60
2023-02-03T22:32:53.789Z,6.60
2023-02-03T22:35:20.743Z,6.60
2023-02-03T22:37:47.629Z,6.60
2023-02-03T22:40:14.421Z,6.60
2023-02-03T22:42:41.255Z,6.60
2023-02-03T22:45:09.124Z,6.60
2023-02-03T22:47:36.001Z,6.60
2023-02-03T22:50:04.587Z,6.70
2023-02-03T22:52:31.564Z,6.70
2023-02-03T22:54:58.329Z,6.60
2023-02-03T22:57:25.130Z,6.60
2023-02-03T22:59:51.926Z,6.60
2023-02-03T23:02:18.768Z,6.60
2023-02-03T23:04:45.764Z,6.70
2023-02-03T23:07:13.067Z,6.70
2023-02-03T23:12:07.289Z,6.60
2023-02-03T23:14:34.287Z,6.60
2023-02-03T23:17:01.476Z,6.60
2023-02-03T23:19:28.263Z,6.60
2023-02-03T23:21:55.063Z,6.50
2023-02-03T23:24:21.913Z,6.60
2023-02-03T23:26:48.631Z,6.50
2023-02-03T23:29:15.766Z,6.50
2023-02-03T23:31:42.736Z,6.50
2023-02-03T23:34:28.171Z,6.40
2023-02-03T23:36:54.889Z,6.30
2023-02-03T23:39:21.955Z,6.30
2023-02-03T23:41:48.654Z,6.40
2023-02-03T23:44:15.433Z,6.40
2023-02-03T23:46:42.207Z,6.40
2023-02-03T23:49:08.904Z,6.40
2023-02-03T23:51:35.587Z,6.40
2023-02-03T23:54:02.287Z,6.40
2023-02-03T23:56:29.042Z,6.40
2023-02-03T23:58:55.744Z,6.40
